createdAt,value
2022-10-12T00:00:08.162Z,9.50
2022-10-12T00:00:43.233Z,9.60
2022-10-12T00:01:18.503Z,9.00
2022-10-12T00:01:53.836Z,9.20
2022-10-12T00:02:28.762Z,9.00
2022-10-12T00:03:03.905Z,10.20
2022-10-12T00:03:39.173Z,8.90
2022-10-12T00:04:14.456Z,9.90
2022-10-12T00:04:49.841Z,10.00
2022-10-12T00:05:25.117Z,10.10
2022-10-12T00:06:00.107Z,9.60
2022-10-12T00:06:35.284Z,9.00
2022-10-12T00:07:10.374Z,8.90
2022-10-12T00:07:45.355Z,9.00
2022-10-12T00:08:20.622Z,8.80
2022-10-12T00:08:56.143Z,8.80
2022-10-12T00:09:31.296Z,9.60
2022-10-12T00:10:06.280Z,8.70
2022-10-12T00:10:41.758Z,10.20
2022-10-12T00:11:17.044Z,10.10
2022-10-12T00:11:52.321Z,9.10
2022-10-12T00:12:27.396Z,8.80
2022-10-12T00:13:03.103Z,9.00
2022-10-12T00:13:38.376Z,9.10
2022-10-12T00:14:13.869Z,8.70
2022-10-12T00:14:49.217Z,8.50
2022-10-12T00:15:24.501Z,8.70
2022-10-12T00:15:59.658Z,8.50
2022-10-12T00:16:34.745Z,9.10
2022-10-12T00:17:09.922Z,9.20
2022-10-12T00:17:45.099Z,8.90
2022-10-12T00:18:20.293Z,9.20
2022-10-12T00:18:55.494Z,8.30
2022-10-12T00:19:30.796Z,8.40
2022-10-12T00:20:06.273Z,8.50
2022-10-12T00:20:41.543Z,8.40
2022-10-12T00:21:17.123Z,8.30
2022-10-12T00:21:52.291Z,7.80
2022-10-12T00:22:27.780Z,8.30
2022-10-12T00:23:02.761Z,9.00
2022-10-12T00:23:37.838Z,8.50
2022-10-12T00:24:13.200Z,8.50
2022-10-12T00:24:48.389Z,9.70
2022-10-12T00:25:23.767Z,10.00
2022-10-12T00:25:59.341Z,9.00
2022-10-12T00:26:34.730Z,8.40
2022-10-12T00:27:09.707Z,8.40
2022-10-12T00:27:45.189Z,8.40
2022-10-12T00:28:20.577Z,8.30
2022-10-12T00:28:55.888Z,8.30
2022-10-12T00:29:31.279Z,8.00
2022-10-12T00:30:06.481Z,7.90
2022-10-12T00:30:42.094Z,8.50
2022-10-12T00:31:17.262Z,8.00
2022-10-12T00:31:52.357Z,7.90
2022-10-12T00:32:27.423Z,8.40
2022-10-12T00:33:02.538Z,8.00
2022-10-12T00:33:37.929Z,7.30
2022-10-12T00:34:13.208Z,7.80
2022-10-12T00:34:48.391Z,7.30
2022-10-12T00:35:23.756Z,8.40
2022-10-12T00:35:59.148Z,8.60
2022-10-12T00:36:34.730Z,8.00
2022-10-12T00:37:10.031Z,7.10
2022-10-12T00:37:45.294Z,8.00
2022-10-12T00:38:20.501Z,8.00
2022-10-12T00:38:55.911Z,8.80
2022-10-12T00:39:31.125Z,8.00
2022-10-12T00:40:06.501Z,7.90
2022-10-12T00:40:41.671Z,7.40
2022-10-12T00:41:16.860Z,8.00
2022-10-12T00:41:51.942Z,9.00
2022-10-12T00:42:27.249Z,9.10
2022-10-12T00:43:02.449Z,8.50
2022-10-12T00:43:37.627Z,7.80
2022-10-12T00:44:12.807Z,8.60
2022-10-12T00:44:48.181Z,7.60
2022-10-12T00:45:23.754Z,7.30
2022-10-12T00:45:59.123Z,7.80
2022-10-12T00:46:34.233Z,7.10
2022-10-12T00:47:09.412Z,7.70
2022-10-12T00:47:44.490Z,8.60
2022-10-12T00:48:20.008Z,8.20
2022-10-12T00:48:55.298Z,7.80
2022-10-12T00:49:30.401Z,8.00
2022-10-12T00:50:05.669Z,8.30
2022-10-12T00:50:40.943Z,8.70
2022-10-12T00:51:16.125Z,8.60
2022-10-12T00:51:51.522Z,7.70
2022-10-12T00:52:26.918Z,7.70
2022-10-12T00:53:01.996Z,8.10
2022-10-12T00:53:37.206Z,7.70
2022-10-12T00:54:12.182Z,7.50
2022-10-12T00:54:47.472Z,7.90
2022-10-12T00:55:22.657Z,8.50
2022-10-12T00:55:58.045Z,8.30
2022-10-12T00:56:33.236Z,7.80
2022-10-12T00:57:08.359Z,7.80
2022-10-12T00:57:47.117Z,7.70
2022-10-12T00:58:19.161Z,7.70
2022-10-12T00:58:54.350Z,7.70
2022-10-12T00:59:29.730Z,7.80
2022-10-12T01:00:04.816Z,7.40
2022-10-12T01:00:39.975Z,7.20
2022-10-12T01:01:14.832Z,7.00
2022-10-12T01:01:50.086Z,7.30
2022-10-12T01:02:25.068Z,8.00
2022-10-12T01:03:00.571Z,8.30
2022-10-12T01:03:35.844Z,7.40
2022-10-12T01:04:10.930Z,7.50
2022-10-12T01:04:46.030Z,7.50
2022-10-12T01:05:20.894Z,7.00
2022-10-12T01:05:56.094Z,7.40
2022-10-12T01:06:31.164Z,6.90
2022-10-12T01:07:06.152Z,6.70
2022-10-12T01:07:41.439Z,7.40
2022-10-12T01:08:16.637Z,7.80
2022-10-12T01:08:52.396Z,7.20
2022-10-12T01:09:27.765Z,7.30
2022-10-12T01:10:03.055Z,6.80
2022-10-12T01:10:38.397Z,6.90
2022-10-12T01:11:13.310Z,8.20
2022-10-12T01:11:48.491Z,7.50
2022-10-12T01:12:23.580Z,7.70
2022-10-12T01:12:59.371Z,7.70
2022-10-12T01:13:34.684Z,7.90
2022-10-12T01:14:10.155Z,7.60
2022-10-12T01:14:45.733Z,7.20
2022-10-12T01:15:20.917Z,7.10
2022-10-12T01:15:56.004Z,6.50
2022-10-12T01:16:31.279Z,7.00
2022-10-12T01:17:06.379Z,7.20
2022-10-12T01:17:41.656Z,7.40
2022-10-12T01:18:16.951Z,7.60
2022-10-12T01:18:52.149Z,8.60
2022-10-12T01:19:27.232Z,7.80
2022-10-12T01:20:02.404Z,7.30
2022-10-12T01:20:37.478Z,8.00
2022-10-12T01:21:12.470Z,8.70
2022-10-12T01:21:47.759Z,7.80
2022-10-12T01:22:22.770Z,7.30
2022-10-12T01:22:57.857Z,7.40
2022-10-12T01:23:33.051Z,7.70
2022-10-12T01:24:08.364Z,7.90
2022-10-12T01:24:43.586Z,7.30
2022-10-12T01:25:18.860Z,7.70
2022-10-12T01:25:54.864Z,7.30
2022-10-12T01:26:30.160Z,7.60
2022-10-12T01:27:05.447Z,7.30
2022-10-12T01:27:41.024Z,7.20
2022-10-12T01:28:16.261Z,7.80
2022-10-12T01:28:51.353Z,7.50
2022-10-12T01:29:26.559Z,7.30
2022-10-12T01:30:01.849Z,7.10
2022-10-12T01:30:37.154Z,7.90
2022-10-12T01:31:12.440Z,7.60
2022-10-12T01:31:47.530Z,7.40
2022-10-12T01:32:22.827Z,6.60
2022-10-12T01:32:58.020Z,7.30
2022-10-12T01:33:33.615Z,7.10
2022-10-12T01:34:08.807Z,6.30
2022-10-12T01:34:44.090Z,7.10
2022-10-12T01:35:19.266Z,6.80
2022-10-12T01:35:55.174Z,6.80
2022-10-12T01:36:30.866Z,6.60
2022-10-12T01:37:05.549Z,7.60
2022-10-12T01:37:40.964Z,7.10
2022-10-12T01:38:16.036Z,7.30
2022-10-12T01:38:51.527Z,7.80
2022-10-12T01:39:27.203Z,6.90
2022-10-12T01:40:02.391Z,7.00
2022-10-12T01:40:37.757Z,7.00
2022-10-12T01:41:12.929Z,8.30
2022-10-12T01:41:48.112Z,8.10
2022-10-12T01:42:23.203Z,7.20
2022-10-12T01:42:58.335Z,7.60
2022-10-12T01:43:33.414Z,7.50
2022-10-12T01:44:08.408Z,7.40
2022-10-12T01:44:43.690Z,6.90
2022-10-12T01:45:18.964Z,7.60
2022-10-12T01:45:53.953Z,8.10
2022-10-12T01:46:29.444Z,8.30
2022-10-12T01:47:04.546Z,8.00
2022-10-12T01:47:39.983Z,7.20
2022-10-12T01:48:14.630Z,6.40
2022-10-12T01:48:49.934Z,6.50
2022-10-12T01:49:24.909Z,7.10
2022-10-12T01:49:59.881Z,7.00
2022-10-12T01:50:35.343Z,6.70
2022-10-12T01:51:10.358Z,6.80
2022-10-12T01:51:45.352Z,7.30
2022-10-12T01:52:20.524Z,7.60
2022-10-12T01:52:55.518Z,7.90
2022-10-12T01:53:30.707Z,7.20
2022-10-12T01:54:05.900Z,7.00
2022-10-12T01:54:41.407Z,7.30
2022-10-12T01:55:16.497Z,6.60
2022-10-12T01:55:51.966Z,6.40
2022-10-12T01:56:27.144Z,6.90
2022-10-12T01:57:02.122Z,7.00
2022-10-12T01:57:37.937Z,7.40
2022-10-12T01:58:13.000Z,7.70
2022-10-12T01:58:48.197Z,7.00
2022-10-12T01:59:23.386Z,7.10
2022-10-12T01:59:58.568Z,7.40
2022-10-12T02:00:33.954Z,6.50
2022-10-12T02:01:09.088Z,6.80
2022-10-12T02:01:44.309Z,7.40
2022-10-12T02:02:19.507Z,7.80
2022-10-12T02:02:54.896Z,6.50
2022-10-12T02:03:30.266Z,7.20
2022-10-12T02:04:05.752Z,7.50
2022-10-12T02:04:41.043Z,6.90
2022-10-12T02:05:16.023Z,7.20
2022-10-12T02:05:51.119Z,6.20
2022-10-12T02:06:26.195Z,5.90
2022-10-12T02:07:01.188Z,6.40
2022-10-12T02:07:36.721Z,6.80
2022-10-12T02:08:11.505Z,6.30
2022-10-12T02:08:46.696Z,6.30
2022-10-12T02:09:21.904Z,7.40
2022-10-12T02:09:56.989Z,8.00
2022-10-12T02:10:32.480Z,6.60
2022-10-12T02:11:07.770Z,6.20
2022-10-12T02:11:43.022Z,6.80
2022-10-12T02:12:18.253Z,6.80
2022-10-12T02:12:53.427Z,7.10
2022-10-12T02:13:28.894Z,6.60
2022-10-12T02:14:04.297Z,6.60
2022-10-12T02:14:39.466Z,6.50
2022-10-12T02:15:14.662Z,6.30
2022-10-12T02:15:49.975Z,6.80
2022-10-12T02:16:25.045Z,7.50
2022-10-12T02:17:01.326Z,7.10
2022-10-12T02:17:36.849Z,6.60
2022-10-12T02:18:12.023Z,7.20
2022-10-12T02:18:47.091Z,7.20
2022-10-12T02:19:22.502Z,7.00
2022-10-12T02:19:57.727Z,6.20
2022-10-12T02:20:33.010Z,6.60
2022-10-12T02:21:08.412Z,7.50
2022-10-12T02:21:43.405Z,7.20
2022-10-12T02:22:18.371Z,7.20
2022-10-12T02:22:53.864Z,6.40
2022-10-12T02:23:29.150Z,5.50
2022-10-12T02:24:04.352Z,6.00
2022-10-12T02:24:39.555Z,6.20
2022-10-12T02:25:14.854Z,6.70
2022-10-12T02:25:50.036Z,6.40
2022-10-12T02:26:25.437Z,5.70
2022-10-12T02:27:00.419Z,6.30
2022-10-12T02:27:36.066Z,6.60
2022-10-12T02:28:10.744Z,6.70
2022-10-12T02:28:46.277Z,7.10
2022-10-12T02:29:21.385Z,7.00
2022-10-12T02:29:56.491Z,6.90
2022-10-12T02:30:31.768Z,6.50
2022-10-12T02:31:06.967Z,7.30
2022-10-12T02:31:42.457Z,6.50
2022-10-12T02:32:17.668Z,6.70
2022-10-12T02:32:52.644Z,7.40
2022-10-12T02:33:27.761Z,6.60
2022-10-12T02:34:03.050Z,6.30
2022-10-12T02:34:38.244Z,7.20
2022-10-12T02:35:13.747Z,7.40
2022-10-12T02:35:48.910Z,7.10
2022-10-12T02:36:24.479Z,7.10
2022-10-12T02:37:00.177Z,6.90
2022-10-12T02:37:35.665Z,7.70
2022-10-12T02:38:10.873Z,6.70
2022-10-12T02:38:46.057Z,7.60
2022-10-12T02:39:21.046Z,7.10
2022-10-12T02:39:56.441Z,6.60
2022-10-12T02:40:31.595Z,6.80
2022-10-12T02:41:06.887Z,6.50
2022-10-12T02:41:42.153Z,6.50
2022-10-12T02:42:17.330Z,6.70
2022-10-12T02:43:10.329Z,7.50
2022-10-12T02:43:27.916Z,7.10
2022-10-12T02:44:03.383Z,6.00
2022-10-12T02:44:38.367Z,6.30
2022-10-12T02:45:13.864Z,6.40
2022-10-12T02:45:48.943Z,6.40
2022-10-12T02:46:24.439Z,6.90
2022-10-12T02:46:59.801Z,7.20
2022-10-12T02:47:35.263Z,6.80
2022-10-12T02:48:10.546Z,7.30
2022-10-12T02:48:45.641Z,7.20
2022-10-12T02:49:21.230Z,7.50
2022-10-12T02:49:56.331Z,7.10
2022-10-12T02:50:31.608Z,7.10
2022-10-12T02:51:07.085Z,7.30
2022-10-12T02:51:42.483Z,7.20
2022-10-12T02:52:17.682Z,7.20
2022-10-12T02:52:52.789Z,7.00
2022-10-12T02:53:27.979Z,6.70
2022-10-12T02:54:03.115Z,5.90
2022-10-12T02:54:38.207Z,6.60
2022-10-12T02:55:13.513Z,6.20
2022-10-12T02:55:49.002Z,6.00
2022-10-12T02:56:24.180Z,5.90
2022-10-12T02:56:59.162Z,6.20
2022-10-12T02:57:34.471Z,6.40
2022-10-12T02:58:09.643Z,7.20
2022-10-12T02:58:44.910Z,7.50
2022-10-12T02:59:20.218Z,7.00
2022-10-12T02:59:55.597Z,6.80
2022-10-12T03:00:30.690Z,6.80
2022-10-12T03:01:05.785Z,7.70
2022-10-12T03:01:40.805Z,7.40
2022-10-12T03:02:16.040Z,7.40
2022-10-12T03:02:51.032Z,7.10
2022-10-12T03:03:26.037Z,6.40
2022-10-12T03:04:01.217Z,6.60
2022-10-12T03:04:36.657Z,7.20
2022-10-12T03:05:11.738Z,7.10
2022-10-12T03:05:46.946Z,7.00
2022-10-12T03:06:22.146Z,7.10
2022-10-12T03:06:57.322Z,7.10
2022-10-12T03:07:32.326Z,7.10
2022-10-12T03:08:07.131Z,7.90
2022-10-12T03:08:42.467Z,8.60
2022-10-12T03:09:17.621Z,7.30
2022-10-12T03:09:52.729Z,6.60
2022-10-12T03:10:27.738Z,6.50
2022-10-12T03:11:03.045Z,7.80
2022-10-12T03:11:38.113Z,7.80
2022-10-12T03:12:13.508Z,6.90
2022-10-12T03:12:50.358Z,6.40
2022-10-12T03:13:23.778Z,6.70
2022-10-12T03:13:59.051Z,7.60
2022-10-12T03:14:33.945Z,7.90
2022-10-12T03:15:09.161Z,7.10
2022-10-12T03:15:44.619Z,6.80
2022-10-12T03:16:20.158Z,6.80
2022-10-12T03:16:55.647Z,6.10
2022-10-12T03:17:31.232Z,6.80
2022-10-12T03:18:06.670Z,6.50
2022-10-12T03:18:41.960Z,6.30
2022-10-12T03:19:17.128Z,6.50
2022-10-12T03:19:52.210Z,7.00
2022-10-12T03:20:27.391Z,6.80
2022-10-12T03:21:02.578Z,6.70
2022-10-12T03:21:37.784Z,6.70
2022-10-12T03:22:12.953Z,6.70
2022-10-12T03:22:48.334Z,7.10
2022-10-12T03:23:23.416Z,7.20
2022-10-12T03:23:58.587Z,7.50
2022-10-12T03:24:33.881Z,6.70
2022-10-12T03:25:08.758Z,7.30
2022-10-12T03:25:44.953Z,6.50
2022-10-12T03:26:19.946Z,7.10
2022-10-12T03:26:55.240Z,7.50
2022-10-12T03:27:30.340Z,7.90
2022-10-12T03:28:05.633Z,7.50
2022-10-12T03:28:40.950Z,7.40
2022-10-12T03:29:16.300Z,6.70
2022-10-12T03:29:51.772Z,7.70
2022-10-12T03:30:27.156Z,7.40
2022-10-12T03:31:02.247Z,6.70
2022-10-12T03:31:37.637Z,8.30
2022-10-12T03:32:12.920Z,7.80
2022-10-12T03:32:48.087Z,8.50
2022-10-12T03:33:23.780Z,8.30
2022-10-12T03:33:58.950Z,7.50
2022-10-12T03:34:34.631Z,7.30
2022-10-12T03:35:09.821Z,7.10
2022-10-12T03:35:45.021Z,7.90
2022-10-12T03:36:20.315Z,8.90
2022-10-12T03:36:55.390Z,8.80
2022-10-12T03:37:30.687Z,8.10
2022-10-12T03:38:06.002Z,7.40
2022-10-12T03:38:41.183Z,7.80
2022-10-12T03:39:16.479Z,7.60
2022-10-12T03:39:51.757Z,8.10
2022-10-12T03:40:27.267Z,6.70
2022-10-12T03:41:06.575Z,6.90
2022-10-12T03:41:37.728Z,7.50
2022-10-12T03:42:13.046Z,8.00
2022-10-12T03:42:48.426Z,7.40
2022-10-12T03:43:23.612Z,7.70
2022-10-12T03:43:59.000Z,7.70
2022-10-12T03:44:34.082Z,6.90
2022-10-12T03:45:09.394Z,6.80
2022-10-12T03:45:44.690Z,7.30
2022-10-12T03:46:20.001Z,7.60
2022-10-12T03:46:55.387Z,8.00
2022-10-12T03:47:30.707Z,8.50
2022-10-12T03:48:06.028Z,7.70
2022-10-12T03:48:41.298Z,7.00
2022-10-12T03:49:16.684Z,8.00
2022-10-12T03:49:52.066Z,8.60
2022-10-12T03:50:27.071Z,7.40
2022-10-12T03:51:02.269Z,7.10
2022-10-12T03:51:37.349Z,6.90
2022-10-12T03:52:12.556Z,7.60
2022-10-12T03:52:47.952Z,7.80
2022-10-12T03:53:23.049Z,8.10
2022-10-12T03:53:58.255Z,8.60
2022-10-12T03:54:33.457Z,7.60
2022-10-12T03:55:08.960Z,7.30
2022-10-12T03:55:44.277Z,8.30
2022-10-12T03:56:19.477Z,8.20
2022-10-12T03:56:54.678Z,7.90
2022-10-12T03:57:29.981Z,7.80
2022-10-12T03:58:05.199Z,7.70
2022-10-12T03:58:40.286Z,7.40
2022-10-12T03:59:15.775Z,7.20
2022-10-12T03:59:51.097Z,8.00
2022-10-12T04:00:26.287Z,7.20
2022-10-12T04:01:03.225Z,7.40
2022-10-12T04:01:38.758Z,7.60
2022-10-12T04:02:16.926Z,7.50
2022-10-12T04:02:49.023Z,6.70
2022-10-12T04:03:24.251Z,7.60
2022-10-12T04:03:59.720Z,7.10
2022-10-12T04:04:34.840Z,7.30
2022-10-12T04:05:09.806Z,6.90
2022-10-12T04:05:45.361Z,7.10
2022-10-12T04:06:20.627Z,7.90
2022-10-12T04:06:56.530Z,6.80
2022-10-12T04:07:32.085Z,7.50
2022-10-12T04:08:07.626Z,7.80
2022-10-12T04:08:47.152Z,7.50
2022-10-12T04:09:19.553Z,8.00
2022-10-12T04:09:54.943Z,7.70
2022-10-12T04:10:29.945Z,7.00
2022-10-12T04:11:05.254Z,7.60
2022-10-12T04:11:40.540Z,8.10
2022-10-12T04:12:15.737Z,7.60
2022-10-12T04:12:50.835Z,6.90
2022-10-12T04:13:25.892Z,7.20
2022-10-12T04:14:01.010Z,7.80
2022-10-12T04:14:36.234Z,7.80
2022-10-12T04:15:11.518Z,7.30
2022-10-12T04:15:46.642Z,7.80
2022-10-12T04:16:23.347Z,7.60
2022-10-12T04:17:04.090Z,7.20
2022-10-12T04:17:39.732Z,7.10
2022-10-12T04:18:14.865Z,7.40
2022-10-12T04:18:50.439Z,7.80
2022-10-12T04:19:25.789Z,8.00
2022-10-12T04:20:01.086Z,7.70
2022-10-12T04:20:36.499Z,7.90
2022-10-12T04:21:11.620Z,8.00
2022-10-12T04:21:46.837Z,8.10
2022-10-12T04:22:22.222Z,7.10
2022-10-12T04:22:57.205Z,7.70
2022-10-12T04:23:32.529Z,8.00
2022-10-12T04:24:07.535Z,7.10
2022-10-12T04:24:42.677Z,7.50
2022-10-12T04:25:17.874Z,7.60
2022-10-12T04:25:53.076Z,7.10
2022-10-12T04:26:28.403Z,7.20
2022-10-12T04:27:03.980Z,7.70
2022-10-12T04:27:39.635Z,7.30
2022-10-12T04:28:14.550Z,7.40
2022-10-12T04:28:50.081Z,7.50
2022-10-12T04:29:25.174Z,8.50
2022-10-12T04:30:00.370Z,7.90
2022-10-12T04:30:35.380Z,8.10
2022-10-12T04:31:10.574Z,7.80
2022-10-12T04:31:45.883Z,7.30
2022-10-12T04:32:21.002Z,8.00
2022-10-12T04:32:56.199Z,7.30
2022-10-12T04:33:31.614Z,7.30
2022-10-12T04:34:06.909Z,7.90
2022-10-12T04:34:42.486Z,7.60
2022-10-12T04:35:17.692Z,7.40
2022-10-12T04:35:52.815Z,7.00
2022-10-12T04:36:28.109Z,8.00
2022-10-12T04:37:03.232Z,7.60
2022-10-12T04:37:38.756Z,7.20
2022-10-12T04:38:13.804Z,7.20
2022-10-12T04:38:49.220Z,7.10
2022-10-12T04:39:24.720Z,7.50
2022-10-12T04:40:00.047Z,7.60
2022-10-12T04:40:35.068Z,7.50
2022-10-12T04:41:10.177Z,7.30
2022-10-12T04:41:45.303Z,8.20
2022-10-12T04:42:20.727Z,7.60
2022-10-12T04:42:55.901Z,7.90
2022-10-12T04:43:31.317Z,7.80
2022-10-12T04:44:06.617Z,7.50
2022-10-12T04:44:41.978Z,7.90
2022-10-12T04:45:17.215Z,7.50
2022-10-12T04:45:52.545Z,8.00
2022-10-12T04:46:27.965Z,8.00
2022-10-12T04:47:03.175Z,7.00
2022-10-12T04:47:38.707Z,7.40
2022-10-12T04:48:13.684Z,7.70
2022-10-12T04:48:48.941Z,7.30
2022-10-12T04:49:24.198Z,6.90
2022-10-12T04:49:59.705Z,7.00
2022-10-12T04:50:34.917Z,7.30
2022-10-12T04:51:09.953Z,7.00
2022-10-12T04:51:45.247Z,6.90
2022-10-12T04:52:20.437Z,6.70
2022-10-12T04:52:55.754Z,6.80
2022-10-12T04:53:31.138Z,7.90
2022-10-12T04:54:06.453Z,6.80
2022-10-12T04:54:41.867Z,6.60
2022-10-12T04:55:17.460Z,7.30
2022-10-12T04:55:52.865Z,7.40
2022-10-12T04:56:27.904Z,7.40
2022-10-12T04:57:03.213Z,7.20
2022-10-12T04:57:38.682Z,7.20
2022-10-12T04:58:13.451Z,7.70
2022-10-12T04:58:48.774Z,8.10
2022-10-12T04:59:24.043Z,7.30
2022-10-12T04:59:59.255Z,7.30
2022-10-12T05:00:34.671Z,7.50
2022-10-12T05:01:09.827Z,8.00
2022-10-12T05:01:45.284Z,8.20
2022-10-12T05:02:20.422Z,7.10
2022-10-12T05:02:55.916Z,7.40
2022-10-12T05:03:31.239Z,8.20
2022-10-12T05:04:06.738Z,7.70
2022-10-12T05:04:42.197Z,7.80
2022-10-12T05:05:17.603Z,7.50
2022-10-12T05:05:52.620Z,8.00
2022-10-12T05:06:27.703Z,7.40
2022-10-12T05:07:03.124Z,7.70
2022-10-12T05:07:38.603Z,8.10
2022-10-12T05:08:13.571Z,7.80
2022-10-12T05:08:48.890Z,6.80
2022-10-12T05:09:24.440Z,6.80
2022-10-12T05:09:59.960Z,7.50
2022-10-12T05:10:35.278Z,8.10
2022-10-12T05:11:10.217Z,7.60
2022-10-12T05:11:45.380Z,7.10
2022-10-12T05:12:20.702Z,7.70
2022-10-12T05:12:55.813Z,6.90
2022-10-12T05:13:30.833Z,6.50
2022-10-12T05:14:05.943Z,6.50
2022-10-12T05:14:41.336Z,6.90
2022-10-12T05:15:16.767Z,7.20
2022-10-12T05:15:51.990Z,6.70
2022-10-12T05:16:27.085Z,6.50
2022-10-12T05:17:02.154Z,6.70
2022-10-12T05:17:38.052Z,7.10
2022-10-12T05:18:13.071Z,7.90
2022-10-12T05:18:48.284Z,7.90
2022-10-12T05:19:23.902Z,7.30
2022-10-12T05:19:59.081Z,6.40
2022-10-12T05:20:34.239Z,7.00
2022-10-12T05:21:09.234Z,7.30
2022-10-12T05:21:44.342Z,7.20
2022-10-12T05:22:19.602Z,7.80
2022-10-12T05:22:55.059Z,8.30
2022-10-12T05:23:30.377Z,7.70
2022-10-12T05:24:05.696Z,7.70
2022-10-12T05:24:41.016Z,7.00
2022-10-12T05:25:16.217Z,7.60
2022-10-12T05:25:51.243Z,8.50
2022-10-12T05:26:26.531Z,7.80
2022-10-12T05:27:01.836Z,7.50
2022-10-12T05:27:37.568Z,7.00
2022-10-12T05:28:12.523Z,6.70
2022-10-12T05:28:47.681Z,6.70
2022-10-12T05:29:22.894Z,6.80
2022-10-12T05:29:58.182Z,7.70
2022-10-12T05:30:33.721Z,7.30
2022-10-12T05:31:09.024Z,7.40
2022-10-12T05:31:44.421Z,7.40
2022-10-12T05:32:19.794Z,7.80
2022-10-12T05:32:55.046Z,7.70
2022-10-12T05:33:30.180Z,7.60
2022-10-12T05:34:05.422Z,7.40
2022-10-12T05:34:40.524Z,7.80
2022-10-12T05:35:16.067Z,8.00
2022-10-12T05:35:56.090Z,7.40
2022-10-12T05:36:26.195Z,8.00
2022-10-12T05:37:01.945Z,8.10
2022-10-12T05:37:37.715Z,7.60
2022-10-12T05:38:12.675Z,7.00
2022-10-12T05:38:47.819Z,7.00
2022-10-12T05:39:23.126Z,8.30
2022-10-12T05:39:58.374Z,8.30
2022-10-12T05:40:33.495Z,6.60
2022-10-12T05:41:08.784Z,6.70
2022-10-12T05:41:44.036Z,7.20
2022-10-12T05:42:19.320Z,7.60
2022-10-12T05:42:54.551Z,7.30
2022-10-12T05:43:29.651Z,7.30
2022-10-12T05:44:05.005Z,7.10
2022-10-12T05:44:40.210Z,6.60
2022-10-12T05:45:15.351Z,6.20
2022-10-12T05:45:50.345Z,7.10
2022-10-12T05:46:25.774Z,8.60
2022-10-12T05:47:01.151Z,8.00
2022-10-12T05:47:36.454Z,7.50
2022-10-12T05:48:11.185Z,6.90
2022-10-12T05:48:46.400Z,6.90
2022-10-12T05:49:21.723Z,7.90
2022-10-12T05:49:56.854Z,8.00
2022-10-12T05:50:32.056Z,7.70
2022-10-12T05:51:07.169Z,8.20
2022-10-12T05:51:42.449Z,8.20
2022-10-12T05:52:17.766Z,7.80
2022-10-12T05:52:53.109Z,7.80
2022-10-12T05:53:28.345Z,8.20
2022-10-12T05:54:03.501Z,7.70
2022-10-12T05:54:38.825Z,6.60
2022-10-12T05:55:14.438Z,6.80
2022-10-12T05:55:49.541Z,7.70
2022-10-12T05:56:24.750Z,8.20
2022-10-12T05:56:59.942Z,7.20
2022-10-12T05:57:35.062Z,6.90
2022-10-12T05:58:10.131Z,6.90
2022-10-12T05:58:45.060Z,7.10
2022-10-12T05:59:20.356Z,6.70
2022-10-12T05:59:55.491Z,7.30
2022-10-12T06:00:30.727Z,7.30
2022-10-12T06:01:05.965Z,7.70
2022-10-12T06:01:41.021Z,7.40
2022-10-12T06:02:16.656Z,7.30
2022-10-12T06:02:51.877Z,7.20
2022-10-12T06:03:28.009Z,7.70
2022-10-12T06:04:02.304Z,7.30
2022-10-12T06:04:37.516Z,7.10
2022-10-12T06:05:12.936Z,8.00
2022-10-12T06:05:48.122Z,8.10
2022-10-12T06:06:23.334Z,8.10
2022-10-12T06:06:58.554Z,7.30
2022-10-12T06:07:34.061Z,6.80
2022-10-12T06:08:09.145Z,7.40
2022-10-12T06:08:44.364Z,7.00
2022-10-12T06:09:19.690Z,7.00
2022-10-12T06:09:54.903Z,7.20
2022-10-12T06:10:30.295Z,7.00
2022-10-12T06:11:05.389Z,7.90
2022-10-12T06:11:40.977Z,7.80
2022-10-12T06:12:16.228Z,7.00
2022-10-12T06:12:51.520Z,6.40
2022-10-12T06:13:26.951Z,7.20
2022-10-12T06:14:02.066Z,7.70
2022-10-12T06:14:37.267Z,7.30
2022-10-12T06:15:12.666Z,7.60
2022-10-12T06:15:48.281Z,7.50
2022-10-12T06:16:23.579Z,6.80
2022-10-12T06:16:58.877Z,7.30
2022-10-12T06:17:34.081Z,7.40
2022-10-12T06:18:09.449Z,7.40
2022-10-12T06:18:44.538Z,8.00
2022-10-12T06:19:19.778Z,8.00
2022-10-12T06:19:54.962Z,7.70
2022-10-12T06:20:30.507Z,7.60
2022-10-12T06:21:40.711Z,7.10
2022-10-12T06:22:15.902Z,7.40
2022-10-12T06:22:51.046Z,7.10
2022-10-12T06:23:26.179Z,7.40
2022-10-12T06:24:01.647Z,7.10
2022-10-12T06:24:36.844Z,7.90
2022-10-12T06:25:12.098Z,7.90
2022-10-12T06:25:47.411Z,7.50
2022-10-12T06:26:22.941Z,7.90
2022-10-12T06:26:58.539Z,7.90
2022-10-12T06:27:33.674Z,7.00
2022-10-12T06:28:08.931Z,7.10
2022-10-12T06:28:44.484Z,7.10
2022-10-12T06:29:19.782Z,7.00
2022-10-12T06:29:55.396Z,8.00
2022-10-12T06:30:30.913Z,8.20
2022-10-12T06:31:06.280Z,7.40
2022-10-12T06:31:41.442Z,6.70
2022-10-12T06:32:16.545Z,6.50
2022-10-12T06:32:51.938Z,7.40
2022-10-12T06:33:27.166Z,7.70
2022-10-12T06:34:02.346Z,6.80
2022-10-12T06:34:37.772Z,6.30
2022-10-12T06:35:12.846Z,7.00
2022-10-12T06:35:48.176Z,7.70
2022-10-12T06:36:23.406Z,6.80
2022-10-12T06:37:01.632Z,6.70
2022-10-12T06:37:49.054Z,6.60
2022-10-12T06:38:09.037Z,7.00
2022-10-12T06:38:44.264Z,7.30
2022-10-12T06:39:19.366Z,6.90
2022-10-12T06:39:54.565Z,7.40
2022-10-12T06:40:29.742Z,7.00
2022-10-12T06:41:04.950Z,6.70
2022-10-12T06:41:40.047Z,6.50
2022-10-12T06:42:15.376Z,6.70
2022-10-12T06:42:51.917Z,7.20
2022-10-12T06:43:25.644Z,6.80
2022-10-12T06:44:00.725Z,6.20
2022-10-12T06:44:36.229Z,6.80
2022-10-12T06:45:11.608Z,7.00
2022-10-12T06:45:46.881Z,7.40
2022-10-12T06:46:22.087Z,7.30
2022-10-12T06:46:57.239Z,7.30
2022-10-12T06:47:32.500Z,7.70
2022-10-12T06:48:07.676Z,7.10
2022-10-12T06:48:42.986Z,7.20
2022-10-12T06:49:18.517Z,7.20
2022-10-12T06:49:54.012Z,6.80
2022-10-12T06:50:29.326Z,7.00
2022-10-12T06:51:04.591Z,7.30
2022-10-12T06:51:39.599Z,7.00
2022-10-12T06:52:15.138Z,6.60
2022-10-12T06:52:50.773Z,6.20
2022-10-12T06:53:26.190Z,6.50
2022-10-12T06:54:02.883Z,6.10
2022-10-12T06:54:38.194Z,6.90
2022-10-12T06:55:13.477Z,6.70
2022-10-12T06:55:48.505Z,6.60
2022-10-12T06:56:23.533Z,6.70
2022-10-12T06:56:58.907Z,6.30
2022-10-12T06:57:33.970Z,5.80
2022-10-12T06:58:09.340Z,5.40
2022-10-12T06:58:44.334Z,5.40
2022-10-12T06:59:19.459Z,6.00
2022-10-12T06:59:54.756Z,6.10
2022-10-12T07:00:30.433Z,6.20
2022-10-12T07:01:05.658Z,6.30
2022-10-12T07:01:41.133Z,5.80
2022-10-12T07:02:15.997Z,5.70
2022-10-12T07:02:51.378Z,5.10
2022-10-12T07:03:26.694Z,5.50
2022-10-12T07:04:01.979Z,5.40
2022-10-12T07:04:37.121Z,5.70
2022-10-12T07:05:12.232Z,5.80
2022-10-12T07:05:47.570Z,5.70
2022-10-12T07:06:22.768Z,6.50
2022-10-12T07:06:58.102Z,6.90
2022-10-12T07:07:33.283Z,5.90
2022-10-12T07:08:08.611Z,6.00
2022-10-12T07:08:43.871Z,5.50
2022-10-12T07:09:19.325Z,5.60
2022-10-12T07:09:54.672Z,5.90
2022-10-12T07:10:29.875Z,6.10
2022-10-12T07:11:05.138Z,6.50
2022-10-12T07:11:40.541Z,6.00
2022-10-12T07:12:15.858Z,5.30
2022-10-12T07:12:50.978Z,5.60
2022-10-12T07:13:25.890Z,6.50
2022-10-12T07:14:01.091Z,5.80
2022-10-12T07:14:36.681Z,5.40
2022-10-12T07:15:12.032Z,6.20
2022-10-12T07:15:47.229Z,6.10
2022-10-12T07:16:22.648Z,6.30
2022-10-12T07:16:57.731Z,6.20
2022-10-12T07:17:32.964Z,5.80
2022-10-12T07:18:08.689Z,5.80
2022-10-12T07:18:44.016Z,6.50
2022-10-12T07:19:19.341Z,5.40
2022-10-12T07:19:54.743Z,5.30
2022-10-12T07:20:29.852Z,5.60
2022-10-12T07:21:05.142Z,5.20
2022-10-12T07:21:40.582Z,5.10
2022-10-12T07:22:15.905Z,5.20
2022-10-12T07:22:51.209Z,5.10
2022-10-12T07:23:26.282Z,5.30
2022-10-12T07:24:01.478Z,6.40
2022-10-12T07:24:36.798Z,6.20
2022-10-12T07:25:12.041Z,4.80
2022-10-12T07:25:47.050Z,5.00
2022-10-12T07:26:22.538Z,5.30
2022-10-12T07:26:57.856Z,4.80
2022-10-12T07:27:32.880Z,4.70
2022-10-12T07:28:08.056Z,5.50
2022-10-12T07:28:43.791Z,5.10
2022-10-12T07:29:18.997Z,5.20
2022-10-12T07:29:54.202Z,4.90
2022-10-12T07:30:29.607Z,4.50
2022-10-12T07:31:04.938Z,4.60
2022-10-12T07:31:40.340Z,4.70
2022-10-12T07:32:16.018Z,4.80
2022-10-12T07:32:51.204Z,5.20
2022-10-12T07:33:26.495Z,5.10
2022-10-12T07:34:01.600Z,5.50
2022-10-12T07:34:36.821Z,4.90
2022-10-12T07:35:12.127Z,5.10
2022-10-12T07:36:12.400Z,4.80
2022-10-12T07:36:23.603Z,4.40
2022-10-12T07:36:59.945Z,4.70
2022-10-12T07:37:33.230Z,4.60
2022-10-12T07:38:08.328Z,5.20
2022-10-12T07:38:43.856Z,5.60
2022-10-12T07:39:19.256Z,4.80
2022-10-12T07:39:54.458Z,4.80
2022-10-12T07:40:30.181Z,4.70
2022-10-12T07:41:05.481Z,5.30
2022-10-12T07:41:40.732Z,5.70
2022-10-12T07:42:19.261Z,5.70
2022-10-12T07:43:14.784Z,5.50
2022-10-12T07:43:26.539Z,5.10
2022-10-12T07:44:01.823Z,5.10
2022-10-12T07:44:37.232Z,5.10
2022-10-12T07:45:12.675Z,5.40
2022-10-12T07:45:48.157Z,5.40
2022-10-12T07:46:23.460Z,5.40
2022-10-12T07:46:58.874Z,5.40
2022-10-12T07:47:34.316Z,5.10
2022-10-12T07:48:09.499Z,5.70
2022-10-12T07:48:49.750Z,5.90
2022-10-12T07:49:19.777Z,5.70
2022-10-12T07:49:54.868Z,5.10